Terminal Aerodrome Forecast
Issued by NWS Grand Forks, ND

Home | Current Version | Previous Version | Graphics & Text | Print | Product List | Glossary On
Versions: 1 2 3 4 5 6 7 8 9 10 11 12 13 14
695
FTUS43 KFGF 191720
TAFFAR
TAF
KFAR 191720Z 1918/2018 02020G30KT P6SM FEW250
     FM192200 02015G23KT P6SM SKC
     FM200300 VRB05KT P6SM FEW250=

USA.gov is the U.S. government's official web portal to all federal, state and local government web resources and services.